createdAt,value
2022-08-01T00:01:50.114Z,18.31
2022-08-01T00:04:56.703Z,18.31
2022-08-01T00:08:01.949Z,18.24
2022-08-01T00:11:07.826Z,18.22
2022-08-01T00:14:14.497Z,18.17
2022-08-01T00:17:20.105Z,18.24
2022-08-01T00:20:25.196Z,18.19
2022-08-01T00:23:30.464Z,18.18
2022-08-01T00:26:35.765Z,18.09
2022-08-01T00:30:09.766Z,18.05
2022-08-01T00:33:08.232Z,18.07
2022-08-01T00:36:13.935Z,18.01
2022-08-01T00:39:19.761Z,18.00
2022-08-01T00:42:25.144Z,18.04
2022-08-01T00:45:31.771Z,18.04
2022-08-01T00:48:36.913Z,18.04
2022-08-01T00:51:43.517Z,18.05
2022-08-01T00:54:48.804Z,18.02
2022-08-01T00:58:02.285Z,18.03
2022-08-01T01:01:12.932Z,17.91
2022-08-01T01:04:18.476Z,17.94
2022-08-01T01:07:31.945Z,18.02
2022-08-01T01:10:44.747Z,17.92
2022-08-01T01:13:58.801Z,17.88
2022-08-01T01:17:05.988Z,17.82
2022-08-01T01:20:16.212Z,17.84
2022-08-01T01:23:42.699Z,17.82
2022-08-01T01:26:55.205Z,17.77
2022-08-01T01:30:03.104Z,17.70
2022-08-01T01:33:12.192Z,17.75
2022-08-01T01:36:19.386Z,17.76
2022-08-01T01:39:26.620Z,17.67
2022-08-01T01:42:33.055Z,17.63
2022-08-01T01:45:40.326Z,17.65
2022-08-01T01:48:47.412Z,17.66
2022-08-01T01:51:57.443Z,17.63
2022-08-01T01:55:10.433Z,17.64
2022-08-01T01:58:17.924Z,17.64
2022-08-01T02:01:58.632Z,17.56
2022-08-01T02:04:51.425Z,17.61
2022-08-01T02:07:59.522Z,17.58
2022-08-01T02:11:22.637Z,17.60
2022-08-01T02:14:29.213Z,17.64
2022-08-01T02:17:42.060Z,17.58
2022-08-01T02:20:48.488Z,17.65
2022-08-01T02:24:06.070Z,17.65
2022-08-01T02:27:16.960Z,17.67
2022-08-01T02:30:22.456Z,17.62
2022-08-01T02:33:34.478Z,17.66
2022-08-01T02:36:41.072Z,17.69
2022-08-01T02:39:47.442Z,17.68
2022-08-01T02:42:55.849Z,17.69
2022-08-01T02:46:03.905Z,17.73
2022-08-01T02:49:12.174Z,17.57
2022-08-01T02:52:19.085Z,17.61
2022-08-01T02:55:24.876Z,17.64
2022-08-01T02:58:31.248Z,17.54
2022-08-01T03:01:37.732Z,17.68
2022-08-01T03:04:47.144Z,17.65
2022-08-01T03:07:53.457Z,17.57
2022-08-01T03:10:59.628Z,17.64
2022-08-01T03:14:08.657Z,17.67
2022-08-01T03:17:13.999Z,17.63
2022-08-01T03:20:22.382Z,17.64
2022-08-01T03:23:29.181Z,17.65
2022-08-01T03:26:44.552Z,17.66
2022-08-01T03:29:51.044Z,17.71
2022-08-01T03:32:56.611Z,17.74
2022-08-01T03:36:04.813Z,17.74
2022-08-01T03:39:12.077Z,17.75
2022-08-01T03:42:22.840Z,17.78
2022-08-01T03:45:31.968Z,17.76
2022-08-01T03:48:41.852Z,17.83
2022-08-01T03:51:50.599Z,17.87
2022-08-01T03:54:58.216Z,17.84
2022-08-01T03:58:07.138Z,17.85
2022-08-01T04:01:16.251Z,17.91
2022-08-01T04:04:21.814Z,17.92
2022-08-01T04:07:31.293Z,17.91
2022-08-01T04:10:36.524Z,17.97
2022-08-01T04:13:44.326Z,17.99
2022-08-01T04:16:51.051Z,18.01
2022-08-01T04:19:56.549Z,18.04
2022-08-01T04:23:03.105Z,18.02
2022-08-01T04:26:09.582Z,18.05
2022-08-01T04:29:17.274Z,18.06
2022-08-01T04:32:24.084Z,18.12
2022-08-01T04:36:04.078Z,18.17
2022-08-01T04:39:02.301Z,18.21
2022-08-01T04:42:09.156Z,18.30
2022-08-01T04:45:14.777Z,18.42
2022-08-01T04:48:22.881Z,18.49
2022-08-01T04:51:29.152Z,18.61
2022-08-01T04:54:38.666Z,18.69
2022-08-01T04:57:46.961Z,18.73
2022-08-01T05:00:52.232Z,18.85
2022-08-01T05:03:57.489Z,18.94
2022-08-01T05:07:02.929Z,19.00
2022-08-01T05:10:10.588Z,19.11
2022-08-01T05:13:16.615Z,19.19
2022-08-01T05:16:21.797Z,19.21
2022-08-01T05:19:27.616Z,19.24
2022-08-01T05:22:32.751Z,19.28
2022-08-01T05:25:57.848Z,19.36
2022-08-01T05:29:04.554Z,19.42
2022-08-01T05:32:10.509Z,19.52
2022-08-01T05:35:15.833Z,19.61
2022-08-01T05:38:21.152Z,19.66
2022-08-01T05:41:27.709Z,19.71
2022-08-01T05:44:33.318Z,19.78
2022-08-01T05:47:38.572Z,19.82
2022-08-01T05:50:48.885Z,19.84
2022-08-01T05:53:54.939Z,19.90
2022-08-01T05:57:02.817Z,20.06
2022-08-01T06:00:11.094Z,20.18
2022-08-01T06:03:19.540Z,20.28
2022-08-01T06:06:25.398Z,20.33
2022-08-01T06:09:31.847Z,20.47
2022-08-01T06:12:39.566Z,20.56
2022-08-01T06:15:44.680Z,20.58
2022-08-01T06:18:51.936Z,20.61
2022-08-01T06:22:00.376Z,20.60
2022-08-01T06:25:07.517Z,20.66
2022-08-01T06:28:17.885Z,20.68
2022-08-01T06:31:23.117Z,20.73
2022-08-01T06:34:28.910Z,20.70
2022-08-01T06:37:34.976Z,20.77
2022-08-01T06:40:40.297Z,20.87
2022-08-01T06:43:46.808Z,20.99
2022-08-01T06:46:51.988Z,21.10
2022-08-01T06:49:57.090Z,21.28
2022-08-01T06:53:02.546Z,21.26
2022-08-01T06:56:09.685Z,21.62
2022-08-01T06:59:17.304Z,21.95
2022-08-01T07:02:22.463Z,21.73
2022-08-01T07:05:28.396Z,21.60
2022-08-01T07:08:33.648Z,21.54
2022-08-01T07:11:39.035Z,21.52
2022-08-01T07:14:45.573Z,21.59
2022-08-01T07:17:50.800Z,21.72
2022-08-01T07:20:56.020Z,21.81
2022-08-01T07:24:02.650Z,21.86
2022-08-01T07:27:23.966Z,21.96
2022-08-01T07:30:32.670Z,21.99
2022-08-01T07:33:47.687Z,22.09
2022-08-01T07:36:55.351Z,22.11
2022-08-01T07:40:00.513Z,22.16
2022-08-01T07:43:05.732Z,22.16
2022-08-01T07:46:12.229Z,22.16
2022-08-01T07:49:18.787Z,22.30
2022-08-01T07:52:24.157Z,22.32
2022-08-01T07:55:29.495Z,22.44
2022-08-01T07:58:34.796Z,22.22
2022-08-01T08:01:41.395Z,22.25
2022-08-01T08:04:49.085Z,22.31
2022-08-01T08:07:54.888Z,22.54
2022-08-01T08:10:59.992Z,22.47
2022-08-01T08:14:05.556Z,22.57
2022-08-01T08:17:12.635Z,22.45
2022-08-01T08:20:17.888Z,22.45
2022-08-01T08:23:42.708Z,22.51
2022-08-01T08:26:49.340Z,22.58
2022-08-01T08:29:57.860Z,22.46
2022-08-01T08:33:04.606Z,22.42
2022-08-01T08:36:18.680Z,22.46
2022-08-01T08:39:24.910Z,22.53
2022-08-01T08:42:30.062Z,22.62
2022-08-01T08:45:58.927Z,22.68
2022-08-01T08:49:03.804Z,22.73
2022-08-01T08:52:12.387Z,22.67
2022-08-01T08:55:19.859Z,22.60
2022-08-01T08:58:29.240Z,22.67
2022-08-01T09:01:37.192Z,22.81
2022-08-01T09:04:43.787Z,22.85
2022-08-01T09:07:49.215Z,22.81
2022-08-01T09:10:54.479Z,22.88
2022-08-01T09:14:10.972Z,23.02
2022-08-01T09:17:17.574Z,22.98
2022-08-01T09:20:26.460Z,23.04
2022-08-01T09:23:35.620Z,23.03
2022-08-01T09:26:41.005Z,23.12
2022-08-01T09:29:49.912Z,23.18
2022-08-01T09:33:17.735Z,23.25
2022-08-01T09:36:26.673Z,23.32
2022-08-01T09:39:37.449Z,23.41
2022-08-01T09:42:42.848Z,23.27
2022-08-01T09:45:50.725Z,23.45
2022-08-01T09:49:00.570Z,23.52
2022-08-01T09:52:17.285Z,23.66
2022-08-01T09:55:24.103Z,23.76
2022-08-01T09:58:29.292Z,23.87
2022-08-01T10:01:46.569Z,23.92
2022-08-01T10:04:58.173Z,23.95
2022-08-01T10:08:08.248Z,23.85
2022-08-01T10:11:16.580Z,23.82
2022-08-01T10:14:22.214Z,23.90
2022-08-01T10:17:50.745Z,23.98
2022-08-01T10:20:56.748Z,24.05
2022-08-01T10:24:06.116Z,24.13
2022-08-01T10:27:13.192Z,24.18
2022-08-01T10:30:23.474Z,24.12
2022-08-01T10:33:51.062Z,24.07
2022-08-01T10:36:57.921Z,24.21
2022-08-01T10:40:29.204Z,24.16
2022-08-01T10:43:31.748Z,24.18
2022-08-01T10:46:41.067Z,24.14
2022-08-01T10:49:56.291Z,24.35
2022-08-01T10:53:30.822Z,24.25
2022-08-01T10:56:46.654Z,24.29
2022-08-01T11:00:01.261Z,24.47
2022-08-01T11:03:08.495Z,24.42
2022-08-01T11:06:20.944Z,24.50
2022-08-01T11:09:37.407Z,24.51
2022-08-01T11:12:45.376Z,24.47
2022-08-01T11:15:51.080Z,24.45
2022-08-01T11:18:56.429Z,24.43
2022-08-01T11:22:05.038Z,24.38
2022-08-01T11:25:10.162Z,24.21
2022-08-01T11:28:32.415Z,24.23
2022-08-01T11:31:40.345Z,24.03
2022-08-01T11:34:56.401Z,23.99
2022-08-01T11:38:25.928Z,24.03
2022-08-01T11:41:37.151Z,24.01
2022-08-01T11:44:52.642Z,23.93
2022-08-01T11:47:58.096Z,24.06
2022-08-01T11:51:03.276Z,24.11
2022-08-01T11:54:08.653Z,24.07
2022-08-01T11:57:20.027Z,24.06
2022-08-01T12:00:31.549Z,24.25
2022-08-01T12:03:37.196Z,24.18
2022-08-01T12:06:42.547Z,24.08
2022-08-01T12:09:48.854Z,23.90
2022-08-01T12:12:55.891Z,23.78
2022-08-01T12:16:09.561Z,23.72
2022-08-01T12:19:22.168Z,23.66
2022-08-01T12:22:27.804Z,23.60
2022-08-01T12:25:33.180Z,23.53
2022-08-01T12:28:42.245Z,23.40
2022-08-01T12:31:48.798Z,23.33
2022-08-01T12:34:56.153Z,23.39
2022-08-01T12:38:08.856Z,23.37
2022-08-01T12:41:14.038Z,23.39
2022-08-01T12:44:19.649Z,23.54
2022-08-01T12:47:26.735Z,23.50
2022-08-01T12:50:33.448Z,23.53
2022-08-01T12:53:40.644Z,23.58
2022-08-01T12:56:47.376Z,23.33
2022-08-01T12:59:55.650Z,23.58
2022-08-01T13:03:08.257Z,23.79
2022-08-01T13:06:16.518Z,24.13
2022-08-01T13:09:22.725Z,24.30
2022-08-01T13:12:28.809Z,24.37
2022-08-01T13:15:41.742Z,24.27
2022-08-01T13:18:52.821Z,24.16
2022-08-01T13:22:00.071Z,24.09
2022-08-01T13:25:19.862Z,24.04
2022-08-01T13:28:29.116Z,24.17
2022-08-01T13:31:35.411Z,24.21
2022-08-01T13:34:42.662Z,24.22
2022-08-01T13:37:48.772Z,24.27
2022-08-01T13:41:00.761Z,24.44
2022-08-01T13:44:06.269Z,24.80
2022-08-01T13:47:15.282Z,24.74
2022-08-01T13:50:23.553Z,25.01
2022-08-01T13:53:29.506Z,24.96
2022-08-01T13:56:35.067Z,24.96
2022-08-01T13:59:40.365Z,25.11
2022-08-01T14:02:45.545Z,25.04
2022-08-01T14:05:58.619Z,25.08
2022-08-01T14:09:17.535Z,24.97
2022-08-01T14:12:23.815Z,24.43
2022-08-01T14:15:37.759Z,24.45
2022-08-01T14:18:44.939Z,25.63
2022-08-01T14:21:53.480Z,25.40
2022-08-01T14:25:03.469Z,24.92
2022-08-01T14:28:10.296Z,24.69
2022-08-01T14:31:15.665Z,24.63
2022-08-01T14:34:20.814Z,24.62
2022-08-01T14:37:29.128Z,24.68
2022-08-01T14:40:36.279Z,24.50
2022-08-01T14:43:42.507Z,24.67
2022-08-01T14:46:57.913Z,24.73
2022-08-01T14:50:04.629Z,24.59
2022-08-01T14:53:11.391Z,24.54
2022-08-01T14:56:16.697Z,24.43
2022-08-01T14:59:22.187Z,24.51
2022-08-01T15:02:27.349Z,24.60
2022-08-01T15:05:33.884Z,24.83
2022-08-01T15:08:40.573Z,24.75
2022-08-01T15:11:47.333Z,24.96
2022-08-01T15:14:52.633Z,24.87
2022-08-01T15:17:58.359Z,24.65
2022-08-01T15:21:04.236Z,24.47
2022-08-01T15:24:11.480Z,24.55
2022-08-01T15:27:16.773Z,24.53
2022-08-01T15:30:26.814Z,24.33
2022-08-01T15:33:32.700Z,24.34
2022-08-01T15:36:38.073Z,24.10
2022-08-01T15:39:48.628Z,24.04
2022-08-01T15:42:54.270Z,23.92
2022-08-01T15:46:00.080Z,23.73
2022-08-01T15:49:06.515Z,23.77
2022-08-01T15:52:22.254Z,23.78
2022-08-01T15:55:29.324Z,23.82
2022-08-01T15:58:34.973Z,23.86
2022-08-01T16:01:40.824Z,23.80
2022-08-01T16:04:46.146Z,23.90
2022-08-01T16:07:57.010Z,23.68
2022-08-01T16:11:08.853Z,23.72
2022-08-01T16:14:14.052Z,23.71
2022-08-01T16:17:20.686Z,23.72
2022-08-01T16:20:26.106Z,23.84
2022-08-01T16:23:32.313Z,23.91
2022-08-01T16:26:38.814Z,24.03
2022-08-01T16:29:44.012Z,24.13
2022-08-01T16:32:54.742Z,24.16
2022-08-01T16:36:02.918Z,24.18
2022-08-01T16:39:08.174Z,24.25
2022-08-01T16:42:14.805Z,24.23
2022-08-01T16:45:21.295Z,24.05
2022-08-01T16:48:27.064Z,24.01
2022-08-01T16:51:32.869Z,23.90
2022-08-01T16:54:38.171Z,23.85
2022-08-01T16:57:44.588Z,23.58
2022-08-01T17:00:56.358Z,23.59
2022-08-01T17:04:02.525Z,23.64
2022-08-01T17:07:08.542Z,23.60
2022-08-01T17:10:15.289Z,23.51
2022-08-01T17:13:23.504Z,23.53
2022-08-01T17:16:28.668Z,23.49
2022-08-01T17:19:34.030Z,23.49
2022-08-01T17:22:39.164Z,23.35
2022-08-01T17:25:44.516Z,23.11
2022-08-01T17:28:51.122Z,23.19
2022-08-01T17:31:56.296Z,23.17
2022-08-01T17:35:01.472Z,23.08
2022-08-01T17:38:07.156Z,23.00
2022-08-01T17:41:12.303Z,22.90
2022-08-01T17:44:19.075Z,22.75
2022-08-01T17:47:48.075Z,22.76
2022-08-01T17:50:50.538Z,22.78
2022-08-01T17:53:57.687Z,22.59
2022-08-01T17:57:03.178Z,22.53
2022-08-01T18:00:16.644Z,22.55
2022-08-01T18:03:30.437Z,22.39
2022-08-01T18:06:37.121Z,22.46
2022-08-01T18:09:45.811Z,22.26
2022-08-01T18:12:51.066Z,22.22
2022-08-01T18:15:58.875Z,22.15
2022-08-01T18:19:04.271Z,22.25
2022-08-01T18:22:31.361Z,22.26
2022-08-01T18:25:35.279Z,22.17
2022-08-01T18:28:46.610Z,21.97
2022-08-01T18:31:55.888Z,21.77
2022-08-01T18:35:01.074Z,21.74
2022-08-01T18:38:10.038Z,21.66
2022-08-01T18:41:17.149Z,21.65
2022-08-01T18:44:24.187Z,21.67
2022-08-01T18:47:30.818Z,21.51
2022-08-01T18:50:36.277Z,21.51
2022-08-01T18:53:42.285Z,21.49
2022-08-01T18:56:52.321Z,21.51
2022-08-01T18:59:58.787Z,21.44
2022-08-01T19:03:05.288Z,21.39
2022-08-01T19:06:12.040Z,21.31
2022-08-01T19:09:20.407Z,21.20
2022-08-01T19:12:26.203Z,21.13
2022-08-01T19:15:31.466Z,20.95
2022-08-01T19:18:40.169Z,20.98
2022-08-01T19:21:45.339Z,20.90
2022-08-01T19:24:50.746Z,20.88
2022-08-01T19:27:57.845Z,20.80
2022-08-01T19:31:04.150Z,20.88
2022-08-01T19:34:14.867Z,20.55
2022-08-01T19:37:25.409Z,20.64
2022-08-01T19:40:32.667Z,20.50
2022-08-01T19:43:41.418Z,20.51
2022-08-01T19:46:49.109Z,20.50
2022-08-01T19:49:55.719Z,20.34
2022-08-01T19:53:04.726Z,20.30
2022-08-01T19:56:11.855Z,20.42
2022-08-01T19:59:19.761Z,20.35
2022-08-01T20:02:25.425Z,20.28
2022-08-01T20:05:32.352Z,20.31
2022-08-01T20:08:38.046Z,20.30
2022-08-01T20:11:46.922Z,20.24
2022-08-01T20:14:54.793Z,20.17
2022-08-01T20:18:00.182Z,20.14
2022-08-01T20:21:07.315Z,20.09
2022-08-01T20:24:17.747Z,20.06
2022-08-01T20:27:26.903Z,20.00
2022-08-01T20:30:32.569Z,19.87
2022-08-01T20:33:45.376Z,19.86
2022-08-01T20:36:56.512Z,19.88
2022-08-01T20:40:02.720Z,19.91
2022-08-01T20:43:09.468Z,19.88
2022-08-01T20:46:17.714Z,19.78
2022-08-01T20:49:24.275Z,19.73
2022-08-01T20:52:31.359Z,19.60
2022-08-01T20:55:47.552Z,19.60
2022-08-01T20:59:04.823Z,19.63
2022-08-01T21:02:43.525Z,19.64
2022-08-01T21:05:55.995Z,19.60
2022-08-01T21:09:07.530Z,19.54
2022-08-01T21:12:21.409Z,19.39
2022-08-01T21:15:31.665Z,19.41
2022-08-01T21:18:40.408Z,19.40
2022-08-01T21:21:53.151Z,19.33
2022-08-01T21:25:07.094Z,19.37
2022-08-01T21:28:16.166Z,19.27
2022-08-01T21:31:24.287Z,19.29
2022-08-01T21:34:30.833Z,19.28
2022-08-01T21:37:38.362Z,19.18
2022-08-01T21:40:45.427Z,19.15
2022-08-01T21:43:51.065Z,19.12
2022-08-01T21:46:58.014Z,19.13
2022-08-01T21:50:04.334Z,19.11
2022-08-01T21:53:16.519Z,19.09
2022-08-01T21:56:31.951Z,19.03
2022-08-01T21:59:47.077Z,19.05
2022-08-01T22:02:57.038Z,18.96
2022-08-01T22:06:03.372Z,18.96
2022-08-01T22:09:09.263Z,19.03
2022-08-01T22:12:18.471Z,18.95
2022-08-01T22:15:27.219Z,18.86
2022-08-01T22:18:51.417Z,18.84
2022-08-01T22:21:57.082Z,18.88
2022-08-01T22:25:02.947Z,18.89
2022-08-01T22:28:17.405Z,18.89
2022-08-01T22:31:22.661Z,18.89
2022-08-01T22:34:28.072Z,18.84
2022-08-01T22:37:56.998Z,18.83
2022-08-01T22:41:03.488Z,18.78
2022-08-01T22:44:11.864Z,18.73
2022-08-01T22:47:27.293Z,18.67
2022-08-01T22:50:37.532Z,18.70
2022-08-01T22:53:48.625Z,18.73
2022-08-01T22:56:57.676Z,18.69
2022-08-01T23:00:08.738Z,18.74
2022-08-01T23:03:19.577Z,18.72
2022-08-01T23:06:31.276Z,18.67
2022-08-01T23:09:54.527Z,18.78
2022-08-01T23:13:01.859Z,18.75
2022-08-01T23:16:09.635Z,18.66
2022-08-01T23:19:15.032Z,18.65
2022-08-01T23:22:21.517Z,18.71
2022-08-01T23:25:27.416Z,18.63
2022-08-01T23:28:33.732Z,18.69
2022-08-01T23:32:02.488Z,18.59
2022-08-01T23:35:06.591Z,18.64
2022-08-01T23:38:16.230Z,18.67
2022-08-01T23:41:21.601Z,18.52
2022-08-01T23:44:26.779Z,18.53
2022-08-01T23:47:33.246Z,18.58
2022-08-01T23:50:38.440Z,18.58
2022-08-01T23:53:43.932Z,18.63
2022-08-01T23:56:51.203Z,18.60
2022-08-01T23:59:58.067Z,18.56
